Bitte eine E-Mail-Adresse für das Benutzerkonto eingeben. Ein Bestätigungscode wird dann an diese verschickt. Sobald der Code vorliegt, kann ein neues Passwort für das Benutzerkonto festgelegt werden.

 

 

 
NEU! ab. 1.4.
Nortel Info 128,740 MHz

WebCam

  
Kamera Halle
Wetter EDDS

METAR

EDDS 252320Z 29012KT 9999 -RA FEW016 BKN036 11/09 Q1016 =


TAF

EDDS 252300Z 2600/2624 27007KT 9999 SCT025 BKN045 PROB30 TEMPO 2600/2602 RA BECMG 2608/2610 26012KT TEMPO 2610/2616 27015G25KT BECMG 2617/2620 27004KT =


SR/SS

04:09 / 18:28 UTC
(EDSO 26-04-2018)